createdAt,value
2019-05-02T00:01:35.902Z,22.30
2019-05-02T00:04:05.679Z,22.30
2019-05-02T00:06:37.992Z,22.30
2019-05-02T00:09:09.355Z,22.30
2019-05-02T00:11:39.734Z,22.20
2019-05-02T00:14:10.774Z,22.20
2019-05-02T00:16:40.583Z,22.20
2019-05-02T00:19:14.004Z,22.20
2019-05-02T00:21:43.241Z,22.20
2019-05-02T00:24:13.478Z,22.10
2019-05-02T00:26:43.099Z,22.10
2019-05-02T00:29:12.814Z,22.10
2019-05-02T00:31:47.051Z,22.10
2019-05-02T00:34:13.776Z,22.10
2019-05-02T00:36:43.452Z,22.00
2019-05-02T00:39:15.075Z,22.00
2019-05-02T00:41:44.809Z,22.00
2019-05-02T00:44:14.518Z,22.00
2019-05-02T00:46:44.256Z,22.00
2019-05-02T00:49:14.130Z,22.00
2019-05-02T00:51:43.822Z,21.90
2019-05-02T00:54:13.814Z,21.90
2019-05-02T00:56:44.077Z,21.90
2019-05-02T00:59:15.392Z,21.90
2019-05-02T01:01:46.665Z,21.90
2019-05-02T01:04:27.587Z,21.90
2019-05-02T01:06:58.616Z,21.90
2019-05-02T01:09:28.790Z,21.90
2019-05-02T01:11:58.523Z,21.80
2019-05-02T01:14:31.880Z,21.80
2019-05-02T01:16:59.522Z,21.80
2019-05-02T01:19:29.165Z,21.80
2019-05-02T01:21:58.683Z,21.80
2019-05-02T01:24:28.678Z,21.80
2019-05-02T01:27:14.968Z,21.80
2019-05-02T01:29:52.436Z,21.80
2019-05-02T01:32:30.079Z,21.80
2019-05-02T01:34:59.561Z,21.80
2019-05-02T01:37:30.872Z,21.80
2019-05-02T01:40:00.529Z,21.80
2019-05-02T01:42:39.719Z,21.80
2019-05-02T01:45:01.870Z,21.80
2019-05-02T01:47:34.257Z,21.80
2019-05-02T01:50:03.367Z,21.80
2019-05-02T01:52:33.360Z,21.80
2019-05-02T01:55:03.375Z,21.80
2019-05-02T01:57:33.060Z,21.70
2019-05-02T02:00:04.260Z,21.80
2019-05-02T02:02:34.063Z,21.70
2019-05-02T02:05:06.912Z,21.70
2019-05-02T02:07:36.690Z,21.70
2019-05-02T02:10:06.946Z,21.70
2019-05-02T02:12:41.140Z,21.70
2019-05-02T02:15:08.028Z,21.70
2019-05-02T02:17:37.681Z,21.70
2019-05-02T02:20:09.852Z,21.70
2019-05-02T02:22:48.447Z,21.70
2019-05-02T02:25:40.994Z,21.70
2019-05-02T02:28:10.742Z,21.70
2019-05-02T02:30:40.389Z,21.70
2019-05-02T02:33:10.669Z,21.70
2019-05-02T02:35:49.449Z,21.70
2019-05-02T02:38:12.141Z,21.60
2019-05-02T02:40:41.878Z,21.60
2019-05-02T02:43:32.059Z,21.60
2019-05-02T02:45:57.985Z,21.60
2019-05-02T02:48:23.269Z,21.60
2019-05-02T02:50:53.410Z,21.60
2019-05-02T02:53:32.067Z,21.60
2019-05-02T02:56:04.147Z,21.60
2019-05-02T02:58:44.513Z,21.60
2019-05-02T03:01:05.698Z,21.50
2019-05-02T03:03:35.891Z,21.60
2019-05-02T03:06:08.013Z,21.60
2019-05-02T03:08:45.751Z,21.60
2019-05-02T03:11:10.647Z,21.50
2019-05-02T03:13:52.467Z,21.50
2019-05-02T03:16:33.440Z,21.50
2019-05-02T03:19:03.136Z,21.50
2019-05-02T03:21:32.894Z,21.50
2019-05-02T03:24:05.627Z,21.50
2019-05-02T03:26:34.280Z,21.50
2019-05-02T03:29:04.162Z,21.50
2019-05-02T03:31:34.132Z,21.50
2019-05-02T03:34:03.877Z,21.50
2019-05-02T03:36:36.558Z,21.50
2019-05-02T03:39:14.853Z,21.50
2019-05-02T03:41:38.799Z,21.50
2019-05-02T03:44:11.946Z,21.40
2019-05-02T03:46:40.835Z,21.40
2019-05-02T03:49:10.531Z,21.40
2019-05-02T03:51:40.303Z,21.40
2019-05-02T03:54:10.554Z,21.30
2019-05-02T03:56:44.910Z,21.30
2019-05-02T03:59:12.175Z,21.30
2019-05-02T04:01:43.174Z,21.30
2019-05-02T04:04:14.132Z,21.30
2019-05-02T04:06:44.704Z,21.30
2019-05-02T04:09:39.076Z,21.30
2019-05-02T04:12:11.745Z,21.20
2019-05-02T04:14:58.111Z,21.20
2019-05-02T04:17:35.414Z,21.20
2019-05-02T04:20:01.330Z,21.20
2019-05-02T04:22:32.095Z,21.30
2019-05-02T04:25:05.947Z,21.20
2019-05-02T04:27:34.064Z,21.20
2019-05-02T04:30:11.275Z,21.10
2019-05-02T04:32:37.835Z,21.10
2019-05-02T04:35:07.682Z,21.10
2019-05-02T04:37:41.155Z,21.00
2019-05-02T04:40:12.210Z,20.90
2019-05-02T04:42:40.149Z,20.90
2019-05-02T04:45:24.212Z,20.90
2019-05-02T04:47:42.506Z,20.90
2019-05-02T04:50:18.097Z,20.90
2019-05-02T04:52:48.405Z,20.90
2019-05-02T04:55:25.935Z,20.90
2019-05-02T04:57:50.709Z,20.80
2019-05-02T05:00:21.345Z,20.80
2019-05-02T05:02:53.190Z,20.80
2019-05-02T05:05:25.493Z,20.80
2019-05-02T05:07:54.016Z,20.70
2019-05-02T05:10:23.709Z,20.70
2019-05-02T05:13:19.478Z,20.70
2019-05-02T05:15:48.766Z,20.70
2019-05-02T05:18:17.542Z,20.70
2019-05-02T05:20:52.916Z,20.60
2019-05-02T05:23:21.612Z,20.60
2019-05-02T05:25:55.781Z,20.60
2019-05-02T05:28:24.880Z,20.60
2019-05-02T05:30:54.812Z,20.60
2019-05-02T05:33:24.571Z,20.60
2019-05-02T05:35:54.183Z,20.60
2019-05-02T05:38:28.685Z,20.50
2019-05-02T05:40:55.202Z,20.50
2019-05-02T05:43:24.886Z,20.50
2019-05-02T05:46:06.042Z,20.50
2019-05-02T05:48:27.379Z,20.50
2019-05-02T05:50:57.967Z,20.40
2019-05-02T05:53:28.174Z,20.40
2019-05-02T05:55:58.975Z,20.40
2019-05-02T05:58:29.094Z,20.40
2019-05-02T06:00:58.765Z,20.50
2019-05-02T06:03:28.514Z,20.40
2019-05-02T06:05:58.299Z,20.40
2019-05-02T06:08:28.223Z,20.40
2019-05-02T06:10:57.890Z,20.50
2019-05-02T06:13:27.958Z,20.40
2019-05-02T06:16:02.595Z,20.50
2019-05-02T06:18:28.940Z,20.50
2019-05-02T06:20:58.575Z,20.40
2019-05-02T06:23:31.011Z,20.40
2019-05-02T06:26:01.130Z,20.40
2019-05-02T06:28:30.764Z,20.40
2019-05-02T06:31:02.109Z,20.50
2019-05-02T06:33:32.411Z,20.50
2019-05-02T06:36:02.479Z,20.50
2019-05-02T06:38:32.346Z,20.50
2019-05-02T06:41:02.124Z,20.50
2019-05-02T06:43:31.793Z,20.50
2019-05-02T06:46:14.890Z,20.50
2019-05-02T06:48:32.970Z,20.50
2019-05-02T06:51:02.653Z,20.70
2019-05-02T06:53:34.998Z,20.80
2019-05-02T06:56:07.873Z,21.00
2019-05-02T06:58:37.184Z,21.10
2019-05-02T07:01:06.670Z,21.20
2019-05-02T07:03:36.442Z,21.30
2019-05-02T07:06:07.800Z,21.40
2019-05-02T07:08:37.522Z,21.50
2019-05-02T07:11:07.177Z,21.60
2019-05-02T07:13:42.129Z,21.70
2019-05-02T07:16:10.612Z,21.70
2019-05-02T07:18:57.580Z,21.80
2019-05-02T07:21:27.685Z,21.90
2019-05-02T07:23:57.453Z,21.90
2019-05-02T07:26:27.243Z,22.00
2019-05-02T07:28:56.994Z,22.00
2019-05-02T07:31:26.647Z,22.10
2019-05-02T07:33:56.357Z,22.10
2019-05-02T07:36:26.129Z,22.10
2019-05-02T07:38:57.601Z,22.20
2019-05-02T07:41:28.967Z,22.20
2019-05-02T07:43:58.609Z,22.20
2019-05-02T07:46:28.320Z,22.20
2019-05-02T07:48:57.999Z,22.20
2019-05-02T07:51:27.865Z,22.20
2019-05-02T07:53:58.055Z,22.20
2019-05-02T07:56:27.723Z,22.20
2019-05-02T07:58:57.734Z,22.30
2019-05-02T08:01:27.641Z,22.30
2019-05-02T08:03:57.303Z,22.30
2019-05-02T08:06:34.971Z,22.30
2019-05-02T08:09:01.773Z,22.30
2019-05-02T08:11:32.170Z,22.40
2019-05-02T08:14:01.325Z,22.40
2019-05-02T08:16:31.025Z,22.40
2019-05-02T08:19:01.274Z,22.40
2019-05-02T08:21:32.648Z,22.40
2019-05-02T08:24:03.776Z,22.40
2019-05-02T08:26:53.350Z,22.40
2019-05-02T08:29:23.270Z,22.40
2019-05-02T08:31:54.371Z,22.40
2019-05-02T08:34:31.225Z,22.40
2019-05-02T08:37:03.307Z,22.30
2019-05-02T08:39:33.889Z,22.40
2019-05-02T08:42:04.993Z,22.40
2019-05-02T08:44:34.756Z,22.40
2019-05-02T08:47:04.536Z,22.40
2019-05-02T08:49:34.528Z,22.40
2019-05-02T08:52:04.304Z,22.50
2019-05-02T08:54:34.139Z,22.50
2019-05-02T08:57:03.925Z,22.50
2019-05-02T08:59:33.521Z,22.50
2019-05-02T09:02:03.291Z,22.50
2019-05-02T09:04:32.955Z,22.60
2019-05-02T09:07:02.692Z,22.60
2019-05-02T09:09:32.361Z,22.60
2019-05-02T09:12:12.019Z,22.60
2019-05-02T09:14:33.421Z,22.60
2019-05-02T09:17:08.056Z,22.60
2019-05-02T09:19:35.401Z,22.60
2019-05-02T09:22:07.567Z,22.60
2019-05-02T09:24:36.479Z,22.70
2019-05-02T09:27:06.630Z,22.70
2019-05-02T09:29:40.327Z,22.70
2019-05-02T09:32:07.746Z,22.70
2019-05-02T09:34:37.441Z,22.70
2019-05-02T09:37:07.239Z,22.70
2019-05-02T09:39:36.910Z,22.70
2019-05-02T09:42:11.264Z,22.70
2019-05-02T09:44:37.924Z,22.70
2019-05-02T09:47:09.366Z,22.60
2019-05-02T09:49:41.763Z,22.70
2019-05-02T09:52:11.885Z,22.70
2019-05-02T09:54:45.907Z,22.70
2019-05-02T09:57:13.181Z,22.70
2019-05-02T09:59:50.428Z,22.70
2019-05-02T10:02:14.355Z,22.70
2019-05-02T10:04:44.176Z,22.70
2019-05-02T10:07:15.502Z,22.70
2019-05-02T10:09:45.322Z,22.70
2019-05-02T10:12:14.962Z,22.80
2019-05-02T10:14:44.625Z,22.80
2019-05-02T10:17:14.447Z,22.80
2019-05-02T10:19:49.517Z,22.80
2019-05-02T10:22:15.461Z,22.80
2019-05-02T10:24:45.173Z,22.90
2019-05-02T10:27:14.765Z,22.90
2019-05-02T10:29:44.385Z,22.90
2019-05-02T10:32:16.641Z,22.80
2019-05-02T10:34:47.615Z,22.90
2019-05-02T10:37:16.813Z,22.80
2019-05-02T10:39:46.848Z,22.80
2019-05-02T10:42:16.862Z,22.80
2019-05-02T10:44:46.576Z,22.80
2019-05-02T10:47:16.233Z,22.80
2019-05-02T10:49:56.208Z,22.80
2019-05-02T10:52:29.647Z,22.80
2019-05-02T10:54:57.191Z,22.80
2019-05-02T10:57:26.980Z,22.80
2019-05-02T10:59:56.786Z,22.80
2019-05-02T11:02:28.359Z,22.80
2019-05-02T11:05:02.558Z,22.80
2019-05-02T11:07:32.695Z,22.80
2019-05-02T11:10:06.700Z,22.80
2019-05-02T11:12:44.171Z,22.80
2019-05-02T11:15:12.647Z,22.80
2019-05-02T11:17:43.664Z,22.80
2019-05-02T11:20:13.807Z,22.80
2019-05-02T11:22:43.510Z,22.80
2019-05-02T11:25:13.279Z,22.70
2019-05-02T11:27:42.982Z,22.70
2019-05-02T11:30:16.927Z,22.70
2019-05-02T11:32:44.237Z,22.70
2019-05-02T11:35:14.453Z,22.70
2019-05-02T11:37:44.143Z,22.70
2019-05-02T11:40:13.919Z,22.70
2019-05-02T11:42:43.563Z,22.70
2019-05-02T11:45:13.450Z,22.80
2019-05-02T11:47:43.055Z,22.70
2019-05-02T11:50:12.827Z,22.70
2019-05-02T11:52:42.569Z,22.70
2019-05-02T11:55:12.948Z,22.70
2019-05-02T11:57:42.844Z,22.70
2019-05-02T12:00:12.987Z,22.70
2019-05-02T12:02:44.298Z,22.70
2019-05-02T12:05:19.019Z,22.70
2019-05-02T12:07:48.968Z,22.70
2019-05-02T12:10:18.838Z,22.70
2019-05-02T12:12:48.468Z,22.80
2019-05-02T12:15:18.258Z,22.80
2019-05-02T12:17:47.966Z,22.80
2019-05-02T12:20:17.739Z,22.80
2019-05-02T12:22:47.433Z,22.80
2019-05-02T12:25:36.377Z,22.80
2019-05-02T12:28:07.269Z,22.80
2019-05-02T12:30:37.884Z,22.90
2019-05-02T12:33:08.244Z,22.80
2019-05-02T12:35:38.062Z,22.90
2019-05-02T12:38:08.305Z,22.90
2019-05-02T12:40:38.362Z,22.90
2019-05-02T12:43:08.121Z,22.80
2019-05-02T12:45:37.815Z,22.90
2019-05-02T12:48:07.538Z,22.90
2019-05-02T12:50:37.274Z,22.90
2019-05-02T12:53:07.304Z,22.90
2019-05-02T12:55:36.932Z,22.90
2019-05-02T12:58:06.623Z,22.90
2019-05-02T13:00:36.311Z,22.90
2019-05-02T13:03:13.514Z,23.00
2019-05-02T13:05:43.247Z,23.00
2019-05-02T13:08:12.939Z,23.00
2019-05-02T13:11:02.147Z,23.00
2019-05-02T13:13:32.625Z,23.00
2019-05-02T13:16:03.764Z,23.00
2019-05-02T13:18:37.095Z,23.00
2019-05-02T13:21:08.073Z,23.00
2019-05-02T13:23:51.894Z,23.00
2019-05-02T13:26:26.516Z,23.00
2019-05-02T13:28:52.979Z,23.00
2019-05-02T13:31:24.767Z,23.00
2019-05-02T13:34:06.535Z,23.00
2019-05-02T13:36:43.108Z,23.00
2019-05-02T13:39:34.123Z,23.00
2019-05-02T13:42:04.262Z,23.00
2019-05-02T13:44:35.672Z,23.10
2019-05-02T13:47:07.483Z,23.10
2019-05-02T13:49:50.214Z,23.10
2019-05-02T13:52:08.528Z,23.10
2019-05-02T13:54:38.940Z,23.10
2019-05-02T13:57:08.683Z,23.10
2019-05-02T13:59:38.426Z,23.10
2019-05-02T14:02:08.296Z,23.10
2019-05-02T14:04:38.030Z,23.10
2019-05-02T14:07:12.271Z,23.20
2019-05-02T14:09:50.858Z,23.20
2019-05-02T14:12:25.332Z,23.20
2019-05-02T14:14:54.986Z,23.30
2019-05-02T14:17:24.596Z,23.30
2019-05-02T14:20:07.414Z,23.30
2019-05-02T14:22:25.655Z,23.30
2019-05-02T14:24:55.223Z,23.30
2019-05-02T14:27:24.939Z,23.30
2019-05-02T14:29:54.547Z,23.30
2019-05-02T14:32:26.629Z,23.30
2019-05-02T14:34:57.246Z,23.30
2019-05-02T14:37:27.030Z,23.30
2019-05-02T14:39:58.371Z,23.30
2019-05-02T14:42:28.002Z,23.30
2019-05-02T14:45:08.934Z,23.20
2019-05-02T14:47:29.111Z,23.30
2019-05-02T14:50:02.080Z,23.30
2019-05-02T14:52:32.569Z,23.40
2019-05-02T14:55:02.923Z,23.40
2019-05-02T14:57:33.229Z,23.50
2019-05-02T15:00:03.441Z,23.50
2019-05-02T15:02:48.988Z,23.50
2019-05-02T15:05:19.422Z,23.50
2019-05-02T15:07:46.727Z,23.50
2019-05-02T15:10:17.242Z,23.50
2019-05-02T15:12:51.041Z,23.40
2019-05-02T15:15:18.357Z,23.40
2019-05-02T15:17:48.054Z,23.40
2019-05-02T15:20:17.836Z,23.40
2019-05-02T15:22:47.589Z,23.40
2019-05-02T15:25:18.055Z,23.30
2019-05-02T15:27:50.108Z,23.30
2019-05-02T15:30:19.629Z,23.30
2019-05-02T15:32:57.539Z,23.30
2019-05-02T15:35:42.554Z,23.30
2019-05-02T15:38:20.863Z,23.30
2019-05-02T15:40:50.028Z,23.30
2019-05-02T15:43:15.485Z,23.20
2019-05-02T15:45:45.501Z,23.10
2019-05-02T15:48:22.833Z,23.00
2019-05-02T15:50:52.489Z,22.90
2019-05-02T15:53:19.427Z,22.80
2019-05-02T15:55:50.069Z,22.70
2019-05-02T15:58:23.770Z,22.60
2019-05-02T16:01:08.129Z,22.50
2019-05-02T16:03:46.264Z,22.50
2019-05-02T16:06:20.697Z,22.40
2019-05-02T16:08:47.651Z,22.30
2019-05-02T16:11:18.687Z,22.30
2019-05-02T16:13:52.518Z,22.20
2019-05-02T16:16:22.013Z,22.20
2019-05-02T16:18:52.610Z,22.10
2019-05-02T16:21:39.699Z,22.10
2019-05-02T16:24:23.282Z,22.10
2019-05-02T16:26:56.639Z,22.00
2019-05-02T16:29:28.354Z,22.00
2019-05-02T16:32:05.499Z,21.90
2019-05-02T16:34:37.369Z,21.90
2019-05-02T16:37:16.595Z,21.80
2019-05-02T16:39:49.514Z,21.90
2019-05-02T16:42:15.565Z,22.10
2019-05-02T16:44:45.285Z,22.20
2019-05-02T16:47:15.002Z,22.40
2019-05-02T16:49:48.017Z,22.40
2019-05-02T16:52:16.281Z,22.50
2019-05-02T16:54:46.186Z,22.60
2019-05-02T16:57:17.292Z,22.70
2019-05-02T17:00:08.370Z,22.70
2019-05-02T17:02:43.564Z,22.70
2019-05-02T17:05:12.069Z,22.80
2019-05-02T17:07:43.578Z,22.80
2019-05-02T17:10:17.709Z,22.70
2019-05-02T17:12:47.357Z,22.70
2019-05-02T17:15:30.505Z,22.70
2019-05-02T17:17:58.174Z,22.70
2019-05-02T17:20:28.054Z,22.70
2019-05-02T17:23:03.375Z,22.70
2019-05-02T17:25:29.618Z,22.70
2019-05-02T17:28:02.499Z,22.70
2019-05-02T17:30:38.619Z,22.70
2019-05-02T17:33:02.474Z,22.60
2019-05-02T17:35:32.605Z,22.40
2019-05-02T17:38:02.691Z,22.30
2019-05-02T17:40:32.627Z,22.20
2019-05-02T17:43:06.752Z,22.10
2019-05-02T17:45:38.715Z,22.00
2019-05-02T17:48:09.288Z,21.90
2019-05-02T17:50:39.476Z,21.90
2019-05-02T17:53:09.431Z,21.80
2019-05-02T17:55:40.606Z,21.70
2019-05-02T17:58:12.654Z,21.70
2019-05-02T18:00:47.532Z,21.70
2019-05-02T18:03:15.562Z,21.60
2019-05-02T18:05:46.939Z,21.60
2019-05-02T18:08:16.986Z,21.50
2019-05-02T18:10:50.585Z,21.50
2019-05-02T18:13:18.043Z,21.40
2019-05-02T18:15:47.735Z,21.40
2019-05-02T18:18:17.465Z,21.40
2019-05-02T18:20:47.178Z,21.40
2019-05-02T18:23:18.708Z,21.30
2019-05-02T18:26:07.918Z,21.30
2019-05-02T18:28:47.025Z,21.30
2019-05-02T18:31:09.291Z,21.30
2019-05-02T18:33:41.311Z,21.30
2019-05-02T18:36:10.569Z,21.20
2019-05-02T18:38:41.774Z,21.20
2019-05-02T18:41:12.057Z,21.20
2019-05-02T18:43:46.141Z,21.20
2019-05-02T18:46:19.685Z,21.20
2019-05-02T18:48:49.474Z,21.20
2019-05-02T18:51:19.614Z,21.10
2019-05-02T18:53:52.913Z,21.10
2019-05-02T18:56:24.933Z,21.10
2019-05-02T18:58:54.808Z,21.10
2019-05-02T19:01:24.594Z,21.10
2019-05-02T19:03:57.341Z,21.00
2019-05-02T19:06:33.228Z,21.00
2019-05-02T19:09:09.727Z,21.00
2019-05-02T19:11:46.880Z,21.00
2019-05-02T19:14:22.216Z,21.00
2019-05-02T19:16:51.983Z,20.90
2019-05-02T19:19:22.544Z,20.90
2019-05-02T19:21:52.560Z,20.90
2019-05-02T19:24:22.784Z,20.90
2019-05-02T19:26:53.368Z,20.90
2019-05-02T19:29:25.049Z,20.90
2019-05-02T19:31:55.514Z,20.90
2019-05-02T19:34:26.937Z,20.90
2019-05-02T19:36:57.892Z,20.90
2019-05-02T19:39:29.596Z,20.90
2019-05-02T19:41:59.389Z,20.90
2019-05-02T19:44:31.461Z,20.90
2019-05-02T19:47:02.527Z,20.90
2019-05-02T19:49:32.841Z,20.90
2019-05-02T19:52:02.733Z,20.90
2019-05-02T19:54:39.421Z,20.90
2019-05-02T19:57:04.037Z,20.80
2019-05-02T19:59:33.742Z,20.80
2019-05-02T20:02:06.094Z,20.80
2019-05-02T20:04:37.723Z,20.80
2019-05-02T20:07:07.786Z,20.80
2019-05-02T20:09:42.992Z,20.80
2019-05-02T20:12:13.543Z,20.80
2019-05-02T20:14:45.778Z,20.80
2019-05-02T20:17:20.142Z,20.80
2019-05-02T20:19:48.305Z,20.80
2019-05-02T20:22:18.112Z,20.70
2019-05-02T20:24:59.830Z,20.80
2019-05-02T20:27:28.418Z,20.80
2019-05-02T20:29:58.225Z,20.80
2019-05-02T20:32:47.211Z,20.80
2019-05-02T20:35:17.102Z,20.80
2019-05-02T20:37:48.649Z,20.80
2019-05-02T20:40:24.754Z,20.80
2019-05-02T20:42:56.228Z,20.80
2019-05-02T20:45:26.138Z,20.80
2019-05-02T20:47:55.854Z,20.80
2019-05-02T20:50:25.740Z,20.90
2019-05-02T20:52:55.497Z,20.90
2019-05-02T20:55:25.362Z,20.80
2019-05-02T20:57:55.625Z,20.90
2019-05-02T21:00:28.146Z,20.90
2019-05-02T21:02:58.887Z,20.90
2019-05-02T21:05:32.122Z,20.90
2019-05-02T21:08:06.674Z,20.90
2019-05-02T21:10:38.070Z,20.90
2019-05-02T21:13:07.971Z,21.10
2019-05-02T21:15:37.924Z,21.30
2019-05-02T21:18:07.763Z,21.50
2019-05-02T21:20:37.546Z,21.70
2019-05-02T21:23:07.409Z,21.90
2019-05-02T21:25:37.284Z,22.10
2019-05-02T21:28:07.124Z,22.20
2019-05-02T21:30:36.905Z,22.30
2019-05-02T21:33:08.256Z,22.40
2019-05-02T21:35:37.981Z,22.50
2019-05-02T21:38:07.625Z,22.60
2019-05-02T21:40:37.513Z,22.70
2019-05-02T21:43:07.712Z,22.70
2019-05-02T21:45:37.445Z,22.80
2019-05-02T21:48:07.085Z,22.80
2019-05-02T21:50:56.667Z,22.90
2019-05-02T21:53:32.600Z,22.90
2019-05-02T21:56:03.515Z,23.00
2019-05-02T21:58:33.288Z,23.00
2019-05-02T22:01:07.375Z,23.00
2019-05-02T22:03:37.456Z,23.00
2019-05-02T22:06:07.334Z,23.10
2019-05-02T22:08:37.111Z,23.10
2019-05-02T22:11:06.910Z,23.10
2019-05-02T22:13:55.988Z,23.10
2019-05-02T22:16:27.131Z,23.10
2019-05-02T22:18:56.964Z,23.10
2019-05-02T22:21:26.671Z,23.10
2019-05-02T22:24:08.222Z,23.10
2019-05-02T22:26:28.182Z,23.10
2019-05-02T22:28:58.052Z,23.10
2019-05-02T22:31:27.918Z,23.10
2019-05-02T22:33:58.124Z,23.10
2019-05-02T22:36:28.022Z,23.10
2019-05-02T22:39:15.536Z,23.10
2019-05-02T22:41:45.580Z,23.10
2019-05-02T22:44:15.212Z,23.10
2019-05-02T22:46:45.749Z,23.10
2019-05-02T22:49:16.003Z,23.10
2019-05-02T22:51:45.665Z,23.10
2019-05-02T22:54:26.796Z,23.00
2019-05-02T22:56:46.790Z,22.80
2019-05-02T22:59:16.473Z,22.60
2019-05-02T23:01:46.288Z,22.40
2019-05-02T23:04:16.368Z,22.30
2019-05-02T23:06:46.226Z,22.20
2019-05-02T23:09:16.212Z,22.10
2019-05-02T23:11:46.052Z,22.00
2019-05-02T23:14:15.833Z,21.90
2019-05-02T23:16:45.918Z,21.90
2019-05-02T23:19:15.691Z,21.80
2019-05-02T23:21:45.387Z,21.80
2019-05-02T23:24:16.746Z,21.70
2019-05-02T23:26:51.761Z,21.70
2019-05-02T23:29:22.606Z,21.60
2019-05-02T23:31:52.433Z,21.60
2019-05-02T23:34:23.623Z,21.60
2019-05-02T23:36:53.415Z,21.50
2019-05-02T23:39:23.138Z,21.50
2019-05-02T23:41:52.944Z,21.50
2019-05-02T23:44:22.933Z,21.50
2019-05-02T23:46:52.639Z,21.50
2019-05-02T23:49:22.799Z,21.50
2019-05-02T23:51:52.912Z,21.50
2019-05-02T23:54:22.931Z,21.40
2019-05-02T23:56:52.681Z,21.40
2019-05-02T23:59:22.775Z,21.40
